sensor_id;sensor_type;location;lat;lon;timestamp;P1;durP1;ratioP1;P2;durP2;ratioP2
64353;SDS011;50681;53.334;-6.536;2023-03-01T00:31:28;16.40;;;8.82;;
64353;SDS011;50681;53.334;-6.536;2023-03-01T01:02:55;16.25;;;8.30;;
64353;SDS011;50681;53.334;-6.536;2023-03-01T01:10:03;13.13;;;8.15;;
64353;SDS011;50681;53.334;-6.536;2023-03-01T01:15:36;15.38;;;7.28;;
64353;SDS011;50681;53.334;-6.536;2023-03-01T01:18:56;12.85;;;7.40;;
64353;SDS011;50681;53.334;-6.536;2023-03-01T01:29:04;16.10;;;7.82;;
64353;SDS011;50681;53.334;-6.536;2023-03-01T01:31:34;14.77;;;7.22;;
64353;SDS011;50681;53.334;-6.536;2023-03-01T01:34:11;13.68;;;6.20;;
64353;SDS011;50681;53.334;-6.536;2023-03-01T01:36:50;13.10;;;6.78;;
64353;SDS011;50681;53.334;-6.536;2023-03-01T01:39:23;17.67;;;6.20;;
64353;SDS011;50681;53.334;-6.536;2023-03-01T01:41:52;11.00;;;6.22;;
64353;SDS011;50681;53.334;-6.536;2023-03-01T01:44:19;10.93;;;4.77;;
64353;SDS011;50681;53.334;-6.536;2023-03-01T01:50:08;5.95;;;1.27;;
64353;SDS011;50681;53.334;-6.536;2023-03-01T01:52:46;4.68;;;0.70;;
64353;SDS011;50681;53.334;-6.536;2023-03-01T01:55:16;5.38;;;0.90;;
64353;SDS011;50681;53.334;-6.536;2023-03-01T01:57:51;3.00;;;0.80;;
64353;SDS011;50681;53.334;-6.536;2023-03-01T02:02:55;3.67;;;0.90;;
64353;SDS011;50681;53.334;-6.536;2023-03-01T02:07:59;2.05;;;0.73;;
64353;SDS011;50681;53.334;-6.536;2023-03-01T02:10:25;7.10;;;1.03;;
64353;SDS011;50681;53.334;-6.536;2023-03-01T02:12:52;2.70;;;0.95;;
64353;SDS011;50681;53.334;-6.536;2023-03-01T02:15:21;6.50;;;0.90;;
64353;SDS011;50681;53.334;-6.536;2023-03-01T02:17:53;5.63;;;0.93;;
64353;SDS011;50681;53.334;-6.536;2023-03-01T02:23:37;3.70;;;0.77;;
64353;SDS011;50681;53.334;-6.536;2023-03-01T02:28:36;3.60;;;0.80;;
64353;SDS011;50681;53.334;-6.536;2023-03-01T02:31:07;4.88;;;0.90;;
64353;SDS011;50681;53.334;-6.536;2023-03-01T02:36:35;8.55;;;1.38;;
64353;SDS011;50681;53.334;-6.536;2023-03-01T02:39:07;9.20;;;1.05;;
64353;SDS011;50681;53.334;-6.536;2023-03-01T02:41:39;4.18;;;0.93;;
64353;SDS011;50681;53.334;-6.536;2023-03-01T02:44:07;3.42;;;0.90;;
64353;SDS011;50681;53.334;-6.536;2023-03-01T02:46:41;7.20;;;0.70;;
64353;SDS011;50681;53.334;-6.536;2023-03-01T02:49:25;4.30;;;0.70;;
64353;SDS011;50681;53.334;-6.536;2023-03-01T02:54:33;4.50;;;0.63;;
64353;SDS011;50681;53.334;-6.536;2023-03-01T02:57:05;3.38;;;0.65;;
64353;SDS011;50681;53.334;-6.536;2023-03-01T02:59:32;3.28;;;0.77;;
64353;SDS011;50681;53.334;-6.536;2023-03-01T03:02:04;4.70;;;0.80;;
64353;SDS011;50681;53.334;-6.536;2023-03-01T03:04:30;4.30;;;0.88;;
64353;SDS011;50681;53.334;-6.536;2023-03-01T03:06:57;2.70;;;0.70;;
64353;SDS011;50681;53.334;-6.536;2023-03-01T03:09:22;3.38;;;0.82;;
64353;SDS011;50681;53.334;-6.536;2023-03-01T03:11:48;8.27;;;0.87;;
64353;SDS011;50681;53.334;-6.536;2023-03-01T03:14:14;4.70;;;0.67;;
64353;SDS011;50681;53.334;-6.536;2023-03-01T03:16:44;4.47;;;0.50;;
64353;SDS011;50681;53.334;-6.536;2023-03-01T03:19:14;5.13;;;0.80;;
64353;SDS011;50681;53.334;-6.536;2023-03-01T03:21:41;1.33;;;0.70;;
64353;SDS011;50681;53.334;-6.536;2023-03-01T03:24:07;6.05;;;0.60;;
64353;SDS011;50681;53.334;-6.536;2023-03-01T03:26:33;0.75;;;0.40;;
64353;SDS011;50681;53.334;-6.536;2023-03-01T03:28:58;3.63;;;0.50;;
64353;SDS011;50681;53.334;-6.536;2023-03-01T03:31:26;2.70;;;0.55;;
64353;SDS011;50681;53.334;-6.536;2023-03-01T03:33:55;1.80;;;0.40;;
64353;SDS011;50681;53.334;-6.536;2023-03-01T03:36:26;2.58;;;0.30;;
64353;SDS011;50681;53.334;-6.536;2023-03-01T03:38:52;0.52;;;0.35;;
64353;SDS011;50681;53.334;-6.536;2023-03-01T03:41:18;3.20;;;0.60;;
64353;SDS011;50681;53.334;-6.536;2023-03-01T03:43:43;2.60;;;0.73;;
64353;SDS011;50681;53.334;-6.536;2023-03-01T03:46:10;1.58;;;0.50;;
64353;SDS011;50681;53.334;-6.536;2023-03-01T03:53:43;4.22;;;0.80;;
64353;SDS011;50681;53.334;-6.536;2023-03-01T03:56:10;1.83;;;0.45;;
64353;SDS011;50681;53.334;-6.536;2023-03-01T03:58:36;4.43;;;0.82;;
64353;SDS011;50681;53.334;-6.536;2023-03-01T04:01:02;7.57;;;0.95;;
64353;SDS011;50681;53.334;-6.536;2023-03-01T04:03:30;3.05;;;0.85;;
64353;SDS011;50681;53.334;-6.536;2023-03-01T04:06:00;6.63;;;1.17;;
64353;SDS011;50681;53.334;-6.536;2023-03-01T04:08:26;3.38;;;0.60;;
64353;SDS011;50681;53.334;-6.536;2023-03-01T04:10:56;3.33;;;0.80;;
64353;SDS011;50681;53.334;-6.536;2023-03-01T04:13:24;6.07;;;0.82;;
64353;SDS011;50681;53.334;-6.536;2023-03-01T04:15:50;2.57;;;0.70;;
64353;SDS011;50681;53.334;-6.536;2023-03-01T04:18:17;0.70;;;0.40;;
64353;SDS011;50681;53.334;-6.536;2023-03-01T04:20:45;6.75;;;0.82;;
64353;SDS011;50681;53.334;-6.536;2023-03-01T04:23:14;2.00;;;0.75;;
64353;SDS011;50681;53.334;-6.536;2023-03-01T04:25:49;4.88;;;0.60;;
64353;SDS011;50681;53.334;-6.536;2023-03-01T04:28:21;5.97;;;1.42;;
64353;SDS011;50681;53.334;-6.536;2023-03-01T04:30:49;1.33;;;0.60;;
64353;SDS011;50681;53.334;-6.536;2023-03-01T04:33:15;2.40;;;0.55;;
64353;SDS011;50681;53.334;-6.536;2023-03-01T04:35:41;2.13;;;0.67;;
64353;SDS011;50681;53.334;-6.536;2023-03-01T04:38:06;3.70;;;0.80;;
64353;SDS011;50681;53.334;-6.536;2023-03-01T04:40:32;2.50;;;0.70;;
64353;SDS011;50681;53.334;-6.536;2023-03-01T04:42:58;3.75;;;0.70;;
64353;SDS011;50681;53.334;-6.536;2023-03-01T04:45:24;8.83;;;1.00;;
64353;SDS011;50681;53.334;-6.536;2023-03-01T04:47:49;2.87;;;0.97;;
64353;SDS011;50681;53.334;-6.536;2023-03-01T04:50:18;3.42;;;0.50;;
64353;SDS011;50681;53.334;-6.536;2023-03-01T04:52:48;3.85;;;0.93;;
64353;SDS011;50681;53.334;-6.536;2023-03-01T04:55:14;4.00;;;1.17;;
64353;SDS011;50681;53.334;-6.536;2023-03-01T04:57:39;2.00;;;0.68;;
64353;SDS011;50681;53.334;-6.536;2023-03-01T05:00:06;1.47;;;0.53;;
64353;SDS011;50681;53.334;-6.536;2023-03-01T05:02:49;0.82;;;0.40;;
64353;SDS011;50681;53.334;-6.536;2023-03-01T05:05:22;2.95;;;0.82;;
64353;SDS011;50681;53.334;-6.536;2023-03-01T05:07:53;1.83;;;0.50;;
64353;SDS011;50681;53.334;-6.536;2023-03-01T05:10:30;2.47;;;0.52;;
64353;SDS011;50681;53.334;-6.536;2023-03-01T05:12:57;3.38;;;0.70;;
64353;SDS011;50681;53.334;-6.536;2023-03-01T05:15:27;1.67;;;0.60;;
64353;SDS011;50681;53.334;-6.536;2023-03-01T05:17:54;1.80;;;0.32;;
64353;SDS011;50681;53.334;-6.536;2023-03-01T05:20:23;1.45;;;0.50;;
64353;SDS011;50681;53.334;-6.536;2023-03-01T05:22:55;6.35;;;0.70;;
64353;SDS011;50681;53.334;-6.536;2023-03-01T05:25:40;6.35;;;0.82;;
64353;SDS011;50681;53.334;-6.536;2023-03-01T05:28:13;1.08;;;0.52;;
64353;SDS011;50681;53.334;-6.536;2023-03-01T05:30:39;7.28;;;0.40;;
64353;SDS011;50681;53.334;-6.536;2023-03-01T05:33:05;5.97;;;0.60;;
64353;SDS011;50681;53.334;-6.536;2023-03-01T05:35:35;6.05;;;0.93;;
64353;SDS011;50681;53.334;-6.536;2023-03-01T05:38:01;6.00;;;0.70;;
64353;SDS011;50681;53.334;-6.536;2023-03-01T05:40:27;1.50;;;0.50;;
64353;SDS011;50681;53.334;-6.536;2023-03-01T05:42:54;1.80;;;0.55;;
64353;SDS011;50681;53.334;-6.536;2023-03-01T05:45:21;6.93;;;0.90;;
64353;SDS011;50681;53.334;-6.536;2023-03-01T05:47:48;3.17;;;0.65;;
64353;SDS011;50681;53.334;-6.536;2023-03-01T05:50:25;3.25;;;0.85;;
64353;SDS011;50681;53.334;-6.536;2023-03-01T05:52:57;4.15;;;0.80;;
64353;SDS011;50681;53.334;-6.536;2023-03-01T05:55:27;5.22;;;1.00;;
64353;SDS011;50681;53.334;-6.536;2023-03-01T05:57:53;2.20;;;0.50;;
64353;SDS011;50681;53.334;-6.536;2023-03-01T06:00:19;1.60;;;0.57;;
64353;SDS011;50681;53.334;-6.536;2023-03-01T06:02:47;8.45;;;1.20;;
64353;SDS011;50681;53.334;-6.536;2023-03-01T06:05:14;3.10;;;0.60;;
64353;SDS011;50681;53.334;-6.536;2023-03-01T06:07:40;2.25;;;0.65;;
64353;SDS011;50681;53.334;-6.536;2023-03-01T06:10:06;6.03;;;1.23;;
64353;SDS011;50681;53.334;-6.536;2023-03-01T06:12:34;2.80;;;0.73;;
64353;SDS011;50681;53.334;-6.536;2023-03-01T06:15:00;8.13;;;1.17;;
64353;SDS011;50681;53.334;-6.536;2023-03-01T06:17:29;2.50;;;0.77;;
64353;SDS011;50681;53.334;-6.536;2023-03-01T06:19:55;6.57;;;1.02;;
64353;SDS011;50681;53.334;-6.536;2023-03-01T06:22:21;3.93;;;1.00;;
64353;SDS011;50681;53.334;-6.536;2023-03-01T06:24:46;4.90;;;1.20;;
64353;SDS011;50681;53.334;-6.536;2023-03-01T06:27:12;4.23;;;0.90;;
64353;SDS011;50681;53.334;-6.536;2023-03-01T06:29:40;3.17;;;0.70;;
64353;SDS011;50681;53.334;-6.536;2023-03-01T06:32:08;3.42;;;0.85;;
64353;SDS011;50681;53.334;-6.536;2023-03-01T06:34:36;5.03;;;1.02;;
64353;SDS011;50681;53.334;-6.536;2023-03-01T06:37:15;8.70;;;1.40;;
64353;SDS011;50681;53.334;-6.536;2023-03-01T06:39:43;4.95;;;1.20;;
64353;SDS011;50681;53.334;-6.536;2023-03-01T06:42:16;2.50;;;0.70;;
64353;SDS011;50681;53.334;-6.536;2023-03-01T06:44:41;6.60;;;1.00;;
64353;SDS011;50681;53.334;-6.536;2023-03-01T06:47:10;4.20;;;1.10;;
64353;SDS011;50681;53.334;-6.536;2023-03-01T06:49:35;11.75;;;1.05;;
64353;SDS011;50681;53.334;-6.536;2023-03-01T06:57:57;3.45;;;0.80;;
64353;SDS011;50681;53.334;-6.536;2023-03-01T07:00:33;7.22;;;1.05;;
64353;SDS011;50681;53.334;-6.536;2023-03-01T07:02:59;6.70;;;1.10;;
64353;SDS011;50681;53.334;-6.536;2023-03-01T07:05:27;9.02;;;1.35;;
64353;SDS011;50681;53.334;-6.536;2023-03-01T07:07:53;3.70;;;0.82;;
64353;SDS011;50681;53.334;-6.536;2023-03-01T07:10:20;8.07;;;1.83;;
64353;SDS011;50681;53.334;-6.536;2023-03-01T07:12:45;10.83;;;0.87;;
64353;SDS011;50681;53.334;-6.536;2023-03-01T07:15:13;5.25;;;0.98;;
64353;SDS011;50681;53.334;-6.536;2023-03-01T07:17:40;6.25;;;0.77;;
64353;SDS011;50681;53.334;-6.536;2023-03-01T07:20:05;8.63;;;0.80;;
64353;SDS011;50681;53.334;-6.536;2023-03-01T07:22:31;5.78;;;0.98;;
64353;SDS011;50681;53.334;-6.536;2023-03-01T07:24:59;7.10;;;1.10;;
64353;SDS011;50681;53.334;-6.536;2023-03-01T07:27:27;3.08;;;0.60;;
64353;SDS011;50681;53.334;-6.536;2023-03-01T07:29:53;3.00;;;0.53;;
64353;SDS011;50681;53.334;-6.536;2023-03-01T07:32:18;6.10;;;1.00;;
64353;SDS011;50681;53.334;-6.536;2023-03-01T07:34:46;3.50;;;0.50;;
64353;SDS011;50681;53.334;-6.536;2023-03-01T07:37:11;3.30;;;0.70;;
64353;SDS011;50681;53.334;-6.536;2023-03-01T07:39:37;10.43;;;0.93;;
64353;SDS011;50681;53.334;-6.536;2023-03-01T07:42:02;8.70;;;0.77;;
64353;SDS011;50681;53.334;-6.536;2023-03-01T07:44:28;5.00;;;1.10;;
64353;SDS011;50681;53.334;-6.536;2023-03-01T07:47:01;5.33;;;1.07;;
64353;SDS011;50681;53.334;-6.536;2023-03-01T07:49:28;8.05;;;1.25;;
64353;SDS011;50681;53.334;-6.536;2023-03-01T07:51:53;5.27;;;1.03;;
64353;SDS011;50681;53.334;-6.536;2023-03-01T07:54:19;7.60;;;1.08;;
64353;SDS011;50681;53.334;-6.536;2023-03-01T07:59:44;8.15;;;1.05;;
64353;SDS011;50681;53.334;-6.536;2023-03-01T08:02:25;5.60;;;1.17;;
64353;SDS011;50681;53.334;-6.536;2023-03-01T08:05:03;4.55;;;0.82;;
64353;SDS011;50681;53.334;-6.536;2023-03-01T08:07:29;5.00;;;1.20;;
64353;SDS011;50681;53.334;-6.536;2023-03-01T08:09:54;4.13;;;0.93;;
64353;SDS011;50681;53.334;-6.536;2023-03-01T08:12:20;1.83;;;0.70;;
64353;SDS011;50681;53.334;-6.536;2023-03-01T08:14:45;1.93;;;0.80;;
64353;SDS011;50681;53.334;-6.536;2023-03-01T08:17:13;3.50;;;0.90;;
64353;SDS011;50681;53.334;-6.536;2023-03-01T08:22:14;4.43;;;0.77;;
64353;SDS011;50681;53.334;-6.536;2023-03-01T08:24:40;13.50;;;1.30;;
64353;SDS011;50681;53.334;-6.536;2023-03-01T08:27:05;2.87;;;1.13;;
64353;SDS011;50681;53.334;-6.536;2023-03-01T08:29:31;3.23;;;0.90;;
64353;SDS011;50681;53.334;-6.536;2023-03-01T08:34:23;4.20;;;0.90;;
64353;SDS011;50681;53.334;-6.536;2023-03-01T08:36:49;2.57;;;0.63;;
64353;SDS011;50681;53.334;-6.536;2023-03-01T08:39:17;1.90;;;0.70;;
64353;SDS011;50681;53.334;-6.536;2023-03-01T08:41:44;11.70;;;1.10;;
64353;SDS011;50681;53.334;-6.536;2023-03-01T08:44:11;6.93;;;0.95;;
64353;SDS011;50681;53.334;-6.536;2023-03-01T08:46:38;2.55;;;0.77;;
64353;SDS011;50681;53.334;-6.536;2023-03-01T08:49:06;8.45;;;0.77;;
64353;SDS011;50681;53.334;-6.536;2023-03-01T08:51:37;2.25;;;0.85;;
64353;SDS011;50681;53.334;-6.536;2023-03-01T08:54:03;2.53;;;0.63;;
64353;SDS011;50681;53.334;-6.536;2023-03-01T08:56:35;6.15;;;1.10;;
64353;SDS011;50681;53.334;-6.536;2023-03-01T08:59:00;2.53;;;1.07;;
64353;SDS011;50681;53.334;-6.536;2023-03-01T09:01:33;8.97;;;1.30;;
64353;SDS011;50681;53.334;-6.536;2023-03-01T09:03:58;2.38;;;1.42;;
64353;SDS011;50681;53.334;-6.536;2023-03-01T09:06:32;5.93;;;1.10;;
64353;SDS011;50681;53.334;-6.536;2023-03-01T09:08:59;1.60;;;0.85;;
64353;SDS011;50681;53.334;-6.536;2023-03-01T09:11:24;3.60;;;0.90;;
64353;SDS011;50681;53.334;-6.536;2023-03-01T09:13:50;7.27;;;1.00;;
64353;SDS011;50681;53.334;-6.536;2023-03-01T09:16:17;3.53;;;1.00;;
64353;SDS011;50681;53.334;-6.536;2023-03-01T09:18:44;5.88;;;0.70;;
64353;SDS011;50681;53.334;-6.536;2023-03-01T09:21:12;4.13;;;0.70;;
64353;SDS011;50681;53.334;-6.536;2023-03-01T09:23:41;6.28;;;1.15;;
64353;SDS011;50681;53.334;-6.536;2023-03-01T09:26:14;2.45;;;0.70;;
64353;SDS011;50681;53.334;-6.536;2023-03-01T09:28:42;3.40;;;0.77;;
64353;SDS011;50681;53.334;-6.536;2023-03-01T09:31:09;8.20;;;1.58;;
64353;SDS011;50681;53.334;-6.536;2023-03-01T09:33:37;3.20;;;0.95;;
64353;SDS011;50681;53.334;-6.536;2023-03-01T09:36:04;4.93;;;0.93;;
64353;SDS011;50681;53.334;-6.536;2023-03-01T09:38:32;1.67;;;0.45;;
64353;SDS011;50681;53.334;-6.536;2023-03-01T09:40:58;3.80;;;0.60;;
64353;SDS011;50681;53.334;-6.536;2023-03-01T09:43:34;3.17;;;0.70;;
64353;SDS011;50681;53.334;-6.536;2023-03-01T09:46:12;0.40;;;0.20;;
64353;SDS011;50681;53.334;-6.536;2023-03-01T09:48:44;3.85;;;0.68;;
64353;SDS011;50681;53.334;-6.536;2023-03-01T09:51:34;3.22;;;0.70;;
64353;SDS011;50681;53.334;-6.536;2023-03-01T09:54:01;4.40;;;0.55;;
64353;SDS011;50681;53.334;-6.536;2023-03-01T10:04:57;2.05;;;0.45;;
64353;SDS011;50681;53.334;-6.536;2023-03-01T10:07:39;3.10;;;0.43;;
64353;SDS011;50681;53.334;-6.536;2023-03-01T10:10:35;2.83;;;0.50;;
64353;SDS011;50681;53.334;-6.536;2023-03-01T10:13:14;4.05;;;0.50;;
64353;SDS011;50681;53.334;-6.536;2023-03-01T10:15:47;3.45;;;0.55;;
64353;SDS011;50681;53.334;-6.536;2023-03-01T10:18:20;2.70;;;0.60;;
64353;SDS011;50681;53.334;-6.536;2023-03-01T10:20:53;4.93;;;0.80;;
64353;SDS011;50681;53.334;-6.536;2023-03-01T10:23:24;6.88;;;1.25;;
64353;SDS011;50681;53.334;-6.536;2023-03-01T10:32:00;1.40;;;0.50;;
64353;SDS011;50681;53.334;-6.536;2023-03-01T10:34:21;7.47;;;0.95;;
64353;SDS011;50681;53.334;-6.536;2023-03-01T10:36:56;4.45;;;1.00;;
64353;SDS011;50681;53.334;-6.536;2023-03-01T10:39:38;2.83;;;0.75;;
64353;SDS011;50681;53.334;-6.536;2023-03-01T10:42:48;5.32;;;0.70;;
64353;SDS011;50681;53.334;-6.536;2023-03-01T10:45:32;0.47;;;0.32;;
64353;SDS011;50681;53.334;-6.536;2023-03-01T10:50:34;0.77;;;0.38;;
64353;SDS011;50681;53.334;-6.536;2023-03-01T10:53:00;1.73;;;0.30;;
64353;SDS011;50681;53.334;-6.536;2023-03-01T10:55:38;6.32;;;0.43;;
64353;SDS011;50681;53.334;-6.536;2023-03-01T10:58:21;0.55;;;0.25;;
64353;SDS011;50681;53.334;-6.536;2023-03-01T11:04:10;1.13;;;0.32;;
64353;SDS011;50681;53.334;-6.536;2023-03-01T11:06:37;1.45;;;0.50;;
64353;SDS011;50681;53.334;-6.536;2023-03-01T11:09:20;2.78;;;0.50;;
64353;SDS011;50681;53.334;-6.536;2023-03-01T11:11:54;0.80;;;0.28;;
64353;SDS011;50681;53.334;-6.536;2023-03-01T11:14:21;0.70;;;0.40;;
64353;SDS011;50681;53.334;-6.536;2023-03-01T11:17:02;1.80;;;0.52;;
64353;SDS011;50681;53.334;-6.536;2023-03-01T11:19:28;3.45;;;0.40;;
64353;SDS011;50681;53.334;-6.536;2023-03-01T11:22:02;2.65;;;0.40;;
64353;SDS011;50681;53.334;-6.536;2023-03-01T11:24:39;0.70;;;0.28;;
64353;SDS011;50681;53.334;-6.536;2023-03-01T11:27:15;4.28;;;0.60;;
64353;SDS011;50681;53.334;-6.536;2023-03-01T11:29:56;3.30;;;0.65;;
64353;SDS011;50681;53.334;-6.536;2023-03-01T11:32:28;1.05;;;0.50;;
64353;SDS011;50681;53.334;-6.536;2023-03-01T11:35:04;6.15;;;0.93;;
64353;SDS011;50681;53.334;-6.536;2023-03-01T11:37:41;7.30;;;1.17;;
64353;SDS011;50681;53.334;-6.536;2023-03-01T11:40:25;1.55;;;0.60;;
64353;SDS011;50681;53.334;-6.536;2023-03-01T11:48:35;5.03;;;0.90;;
64353;SDS011;50681;53.334;-6.536;2023-03-01T11:51:07;6.85;;;0.70;;
64353;SDS011;50681;53.334;-6.536;2023-03-01T11:59:11;3.17;;;0.57;;
64353;SDS011;50681;53.334;-6.536;2023-03-01T12:10:27;1.15;;;0.40;;
64353;SDS011;50681;53.334;-6.536;2023-03-01T12:15:32;3.47;;;0.80;;
64353;SDS011;50681;53.334;-6.536;2023-03-01T12:18:27;5.97;;;0.80;;
64353;SDS011;50681;53.334;-6.536;2023-03-01T12:29:02;2.03;;;0.68;;
64353;SDS011;50681;53.334;-6.536;2023-03-01T12:48:42;6.47;;;0.80;;
64353;SDS011;50681;53.334;-6.536;2023-03-01T12:51:23;3.13;;;0.68;;
64353;SDS011;50681;53.334;-6.536;2023-03-01T12:53:53;1.70;;;0.65;;
64353;SDS011;50681;53.334;-6.536;2023-03-01T12:56:23;5.30;;;0.65;;
64353;SDS011;50681;53.334;-6.536;2023-03-01T12:58:57;0.30;;;0.20;;
64353;SDS011;50681;53.334;-6.536;2023-03-01T13:01:51;6.22;;;0.75;;
64353;SDS011;50681;53.334;-6.536;2023-03-01T13:07:19;4.97;;;0.80;;
64353;SDS011;50681;53.334;-6.536;2023-03-01T13:17:53;2.97;;;0.85;;
64353;SDS011;50681;53.334;-6.536;2023-03-01T13:20:27;5.25;;;1.05;;
64353;SDS011;50681;53.334;-6.536;2023-03-01T13:23:40;8.32;;;0.93;;
64353;SDS011;50681;53.334;-6.536;2023-03-01T13:28:40;2.95;;;0.90;;
64353;SDS011;50681;53.334;-6.536;2023-03-01T13:33:48;3.08;;;0.95;;
64353;SDS011;50681;53.334;-6.536;2023-03-01T13:38:56;4.57;;;1.25;;
64353;SDS011;50681;53.334;-6.536;2023-03-01T13:47:03;2.38;;;0.63;;
64353;SDS011;50681;53.334;-6.536;2023-03-01T13:57:49;2.17;;;1.15;;
64353;SDS011;50681;53.334;-6.536;2023-03-01T14:00:27;5.03;;;0.80;;
64353;SDS011;50681;53.334;-6.536;2023-03-01T14:05:31;4.82;;;0.95;;
64353;SDS011;50681;53.334;-6.536;2023-03-01T14:07:57;6.70;;;1.15;;
64353;SDS011;50681;53.334;-6.536;2023-03-01T14:10:22;4.33;;;0.90;;
64353;SDS011;50681;53.334;-6.536;2023-03-01T14:15:36;5.22;;;1.00;;
64353;SDS011;50681;53.334;-6.536;2023-03-01T14:18:17;3.75;;;0.77;;
64353;SDS011;50681;53.334;-6.536;2023-03-01T14:20:54;3.92;;;1.00;;
64353;SDS011;50681;53.334;-6.536;2023-03-01T14:23:28;2.93;;;0.80;;
64353;SDS011;50681;53.334;-6.536;2023-03-01T14:25:55;3.17;;;0.75;;
64353;SDS011;50681;53.334;-6.536;2023-03-01T14:30:53;6.53;;;1.10;;
64353;SDS011;50681;53.334;-6.536;2023-03-01T14:33:27;5.78;;;1.00;;
64353;SDS011;50681;53.334;-6.536;2023-03-01T14:36:07;5.25;;;1.30;;
64353;SDS011;50681;53.334;-6.536;2023-03-01T14:38:35;3.78;;;1.05;;
64353;SDS011;50681;53.334;-6.536;2023-03-01T14:41:15;6.30;;;1.10;;
64353;SDS011;50681;53.334;-6.536;2023-03-01T14:43:43;13.75;;;1.33;;
64353;SDS011;50681;53.334;-6.536;2023-03-01T14:48:44;4.65;;;1.10;;
64353;SDS011;50681;53.334;-6.536;2023-03-01T14:51:09;9.03;;;1.10;;
64353;SDS011;50681;53.334;-6.536;2023-03-01T14:53:36;4.45;;;1.20;;
64353;SDS011;50681;53.334;-6.536;2023-03-01T14:56:02;2.27;;;0.80;;
64353;SDS011;50681;53.334;-6.536;2023-03-01T14:58:28;5.07;;;1.00;;
64353;SDS011;50681;53.334;-6.536;2023-03-01T15:01:13;2.88;;;0.80;;
64353;SDS011;50681;53.334;-6.536;2023-03-01T15:03:44;5.53;;;0.90;;
64353;SDS011;50681;53.334;-6.536;2023-03-01T15:06:14;5.95;;;0.93;;
64353;SDS011;50681;53.334;-6.536;2023-03-01T15:08:42;7.20;;;1.20;;
64353;SDS011;50681;53.334;-6.536;2023-03-01T15:13:47;4.05;;;1.02;;
64353;SDS011;50681;53.334;-6.536;2023-03-01T15:16:14;4.68;;;0.63;;
64353;SDS011;50681;53.334;-6.536;2023-03-01T15:18:57;3.95;;;0.90;;
64353;SDS011;50681;53.334;-6.536;2023-03-01T15:21:29;6.50;;;1.05;;
64353;SDS011;50681;53.334;-6.536;2023-03-01T15:24:14;3.85;;;0.82;;
64353;SDS011;50681;53.334;-6.536;2023-03-01T15:26:45;2.13;;;0.70;;
64353;SDS011;50681;53.334;-6.536;2023-03-01T15:29:20;7.00;;;1.08;;
64353;SDS011;50681;53.334;-6.536;2023-03-01T15:31:58;6.75;;;1.33;;
64353;SDS011;50681;53.334;-6.536;2023-03-01T15:34:45;6.05;;;0.88;;
64353;SDS011;50681;53.334;-6.536;2023-03-01T15:40:22;5.15;;;1.38;;
64353;SDS011;50681;53.334;-6.536;2023-03-01T15:43:02;2.33;;;0.77;;
64353;SDS011;50681;53.334;-6.536;2023-03-01T15:45:34;2.97;;;0.77;;
64353;SDS011;50681;53.334;-6.536;2023-03-01T15:48:03;0.95;;;0.50;;
64353;SDS011;50681;53.334;-6.536;2023-03-01T15:50:34;1.23;;;0.40;;
64353;SDS011;50681;53.334;-6.536;2023-03-01T15:53:06;5.82;;;1.00;;
64353;SDS011;50681;53.334;-6.536;2023-03-01T15:55:36;4.50;;;0.68;;
64353;SDS011;50681;53.334;-6.536;2023-03-01T15:58:17;3.37;;;0.80;;
64353;SDS011;50681;53.334;-6.536;2023-03-01T16:00:46;4.72;;;0.93;;
64353;SDS011;50681;53.334;-6.536;2023-03-01T16:03:13;1.83;;;0.70;;
64353;SDS011;50681;53.334;-6.536;2023-03-01T16:05:41;6.15;;;1.33;;
64353;SDS011;50681;53.334;-6.536;2023-03-01T16:08:07;4.43;;;0.90;;
64353;SDS011;50681;53.334;-6.536;2023-03-01T16:10:33;4.33;;;0.60;;
64353;SDS011;50681;53.334;-6.536;2023-03-01T16:13:00;6.45;;;1.48;;
64353;SDS011;50681;53.334;-6.536;2023-03-01T16:15:30;7.07;;;0.70;;
64353;SDS011;50681;53.334;-6.536;2023-03-01T16:18:01;7.47;;;0.73;;
64353;SDS011;50681;53.334;-6.536;2023-03-01T16:20:27;2.83;;;1.02;;
64353;SDS011;50681;53.334;-6.536;2023-03-01T16:22:57;9.15;;;0.98;;
64353;SDS011;50681;53.334;-6.536;2023-03-01T16:25:25;1.88;;;0.63;;
64353;SDS011;50681;53.334;-6.536;2023-03-01T16:27:52;3.05;;;1.10;;
64353;SDS011;50681;53.334;-6.536;2023-03-01T16:30:18;6.30;;;0.88;;
64353;SDS011;50681;53.334;-6.536;2023-03-01T16:32:47;3.88;;;0.98;;
64353;SDS011;50681;53.334;-6.536;2023-03-01T16:35:23;3.92;;;1.00;;
64353;SDS011;50681;53.334;-6.536;2023-03-01T16:37:51;11.73;;;1.73;;
64353;SDS011;50681;53.334;-6.536;2023-03-01T16:40:24;5.35;;;1.40;;
64353;SDS011;50681;53.334;-6.536;2023-03-01T16:42:52;9.25;;;1.10;;
64353;SDS011;50681;53.334;-6.536;2023-03-01T16:45:26;4.95;;;1.48;;
64353;SDS011;50681;53.334;-6.536;2023-03-01T16:47:53;3.00;;;1.10;;
64353;SDS011;50681;53.334;-6.536;2023-03-01T16:50:19;4.35;;;1.40;;
64353;SDS011;50681;53.334;-6.536;2023-03-01T16:52:44;4.67;;;1.47;;
64353;SDS011;50681;53.334;-6.536;2023-03-01T16:55:13;4.90;;;0.95;;
64353;SDS011;50681;53.334;-6.536;2023-03-01T16:57:38;3.83;;;1.20;;
64353;SDS011;50681;53.334;-6.536;2023-03-01T17:00:05;2.35;;;1.30;;
64353;SDS011;50681;53.334;-6.536;2023-03-01T17:02:34;2.40;;;0.85;;
64353;SDS011;50681;53.334;-6.536;2023-03-01T17:05:00;4.70;;;1.42;;
64353;SDS011;50681;53.334;-6.536;2023-03-01T17:07:42;6.07;;;1.20;;
64353;SDS011;50681;53.334;-6.536;2023-03-01T17:10:09;3.10;;;1.07;;
64353;SDS011;50681;53.334;-6.536;2023-03-01T17:12:36;5.55;;;1.10;;
64353;SDS011;50681;53.334;-6.536;2023-03-01T17:15:02;5.78;;;1.60;;
64353;SDS011;50681;53.334;-6.536;2023-03-01T17:17:29;9.07;;;2.20;;
64353;SDS011;50681;53.334;-6.536;2023-03-01T17:19:54;6.25;;;2.13;;
64353;SDS011;50681;53.334;-6.536;2023-03-01T17:22:20;8.50;;;1.50;;
64353;SDS011;50681;53.334;-6.536;2023-03-01T17:24:45;16.37;;;1.67;;
64353;SDS011;50681;53.334;-6.536;2023-03-01T17:27:11;7.13;;;1.20;;
64353;SDS011;50681;53.334;-6.536;2023-03-01T17:29:38;3.15;;;1.13;;
64353;SDS011;50681;53.334;-6.536;2023-03-01T17:32:05;3.88;;;1.33;;
64353;SDS011;50681;53.334;-6.536;2023-03-01T17:34:31;9.40;;;1.63;;
64353;SDS011;50681;53.334;-6.536;2023-03-01T17:36:57;7.15;;;1.45;;
64353;SDS011;50681;53.334;-6.536;2023-03-01T17:42:08;4.13;;;1.42;;
64353;SDS011;50681;53.334;-6.536;2023-03-01T17:44:34;3.37;;;1.17;;
64353;SDS011;50681;53.334;-6.536;2023-03-01T17:47:00;8.97;;;1.50;;
64353;SDS011;50681;53.334;-6.536;2023-03-01T17:49:26;12.18;;;2.30;;
64353;SDS011;50681;53.334;-6.536;2023-03-01T17:51:52;12.73;;;3.07;;
64353;SDS011;50681;53.334;-6.536;2023-03-01T17:54:17;14.13;;;4.00;;
64353;SDS011;50681;53.334;-6.536;2023-03-01T17:56:42;9.63;;;2.93;;
64353;SDS011;50681;53.334;-6.536;2023-03-01T17:59:08;7.03;;;1.70;;
64353;SDS011;50681;53.334;-6.536;2023-03-01T18:01:33;7.07;;;2.30;;
64353;SDS011;50681;53.334;-6.536;2023-03-01T18:04:02;5.70;;;2.30;;
64353;SDS011;50681;53.334;-6.536;2023-03-01T18:06:28;11.40;;;2.30;;
64353;SDS011;50681;53.334;-6.536;2023-03-01T18:08:53;6.13;;;2.40;;
64353;SDS011;50681;53.334;-6.536;2023-03-01T18:11:20;12.30;;;3.45;;
64353;SDS011;50681;53.334;-6.536;2023-03-01T18:13:47;8.82;;;2.10;;
64353;SDS011;50681;53.334;-6.536;2023-03-01T18:16:14;5.57;;;2.25;;
64353;SDS011;50681;53.334;-6.536;2023-03-01T18:18:42;7.68;;;2.88;;
64353;SDS011;50681;53.334;-6.536;2023-03-01T18:21:11;10.48;;;2.78;;
64353;SDS011;50681;53.334;-6.536;2023-03-01T18:23:37;8.18;;;2.78;;
64353;SDS011;50681;53.334;-6.536;2023-03-01T18:26:08;10.98;;;6.70;;
64353;SDS011;50681;53.334;-6.536;2023-03-01T18:28:35;13.38;;;5.78;;
64353;SDS011;50681;53.334;-6.536;2023-03-01T18:31:03;31.67;;;11.20;;
64353;SDS011;50681;53.334;-6.536;2023-03-01T18:33:32;18.83;;;6.88;;
64353;SDS011;50681;53.334;-6.536;2023-03-01T18:35:58;38.53;;;14.02;;
64353;SDS011;50681;53.334;-6.536;2023-03-01T18:38:24;15.60;;;6.40;;
64353;SDS011;50681;53.334;-6.536;2023-03-01T18:40:50;26.17;;;11.45;;
64353;SDS011;50681;53.334;-6.536;2023-03-01T18:43:20;9.43;;;4.10;;